Latest Weather Observations for Lucinda

IDQ60801

Issued at 11:02 pm EST Saturday 19 August 2017 (issued every 30 minutes, with the page automatically refreshed every 10 minutes)

About weather observations | Map of weather stations | Latest weather observations for QLD | Other Formats
Station Details ID: 032141 Name: LUCINDA POINT Lat: -18.52 Lon: 146.39 Height: 10.0 m
Data from the previous 72 hours. | See also: Recent months at Lucinda
Date/Time
EST
Temp
°C
App
Temp
°C
Dew
Point
°C
Rel
Hum
%
Delta-T
°C
Wind Press
QNH
hPa
Press
MSL
hPa
Rain since
9am
mm
Dir  Spd
km/h
Gust
km/h
Spd
kts
Gust
kts
19/11:00pm 23.0 22.6 17.2 70 3.6 SE 15 19 8 10 1017.8 1017.8 0.0
19/10:30pm 23.1 23.0 16.9 68 3.8 ESE 13 20 7 11 1017.8 1017.8 0.0
19/10:00pm 23.1 22.9 16.6 67 4.0 SE 13 22 7 12 1017.8 1017.8 0.0
19/09:30pm 23.2 23.0 16.7 67 4.0 ESE 13 20 7 11 1017.8 1017.8 0.0
19/09:00pm 23.4 23.6 17.6 70 3.6 SE 13 20 7 11 1017.6 1017.6 0.0
19/08:30pm 23.3 23.6 17.1 68 3.8 ESE 11 20 6 11 1017.2 1017.2 0.0
19/08:00pm 23.3 23.1 16.6 66 4.1 ESE 13 20 7 11 1016.8 1016.8 0.0
19/07:30pm 23.4 23.1 16.4 64 4.3 ESE 13 19 7 10 1016.4 1016.4 0.0
19/07:00pm 23.5 23.5 17.3 68 3.8 ESE 13 22 7 12 1015.9 1015.9 0.0
19/06:30pm 23.5 23.0 16.8 66 4.1 ESE 15 24 8 13 1015.5 1015.5 0.0
19/06:00pm 23.7 22.9 17.2 67 4.0 E 17 24 9 13 1015.2 1015.2 0.0
19/05:30pm 23.8 22.3 16.3 63 4.6 E 19 24 10 13 1015.0 1015.0 0.0
19/05:00pm 24.1 22.3 16.9 64 4.4 E 22 28 12 15 1014.7 1014.7 0.0
19/04:30pm 24.2 21.4 15.4 58 5.3 E 24 30 13 16 1014.5 1014.5 0.0
19/04:00pm 24.2 21.0 14.3 54 5.8 ESE 24 32 13 17 1014.2 1014.2 0.0
19/03:30pm 23.9 21.8 19.0 74 3.1 ESE 28 35 15 19 1014.1 1014.1 0.0
19/03:00pm 23.9 21.5 19.0 74 3.1 ESE 30 41 16 22 1014.1 1014.1 0.0
19/02:30pm 24.9 23.2 16.3 59 5.3 ESE 20 35 11 19 1014.2 1014.2 0.0
19/02:00pm 25.3 23.4 15.3 54 6.0 SE 19 28 10 15 1014.7 1014.7 0.0
19/01:30pm 26.0 25.8 14.8 50 6.7 ENE 9 15 5 8 1015.3 1015.3 0.0
19/01:00pm 25.6 23.4 12.1 43 7.7 S 15 20 8 11 1015.7 1015.7 0.0
19/12:30pm 23.7 25.2 18.1 71 3.5 SW 7 11 4 6 1016.2 1016.2 0.0
19/12:00pm 23.4 24.8 17.8 71 3.5 SSW 7 11 4 6 1016.6 1016.6 0.0
19/11:30am 23.5 24.5 17.7 70 3.6 SSW 9 11 5 6 1016.9 1016.9 0.0
19/11:00am 23.3 24.1 17.3 69 3.7 SSW 9 13 5 7 1017.2 1017.2 0.0
19/10:30am 23.1 22.8 17.3 70 3.6 SSW 15 17 8 9 1017.4 1017.4 0.0
19/10:00am 23.2 22.9 18.3 74 3.1 SSW 17 19 9 10 1017.6 1017.6 0.0
19/09:30am 22.6 22.5 17.9 75 2.9 SSW 15 17 8 9 1017.5 1017.5 0.0
19/09:00am 22.0 22.2 17.6 76 2.7 SSW 13 17 7 9 1017.5 1017.5 0.0
19/08:30am 22.0 23.0 19.4 85 1.7 SSW 13 17 7 9 1017.3 1017.3 0.0
19/08:00am 21.1 21.4 18.7 86 1.5 SSW 15 19 8 10 1017.1 1017.1 0.0
19/07:30am 19.6 18.5 17.4 87 1.3 SW 19 20 10 11 1016.9 1016.9 0.0
19/07:00am 20.4 19.9 17.8 85 1.6 SW 17 20 9 11 1016.5 1016.5 0.0
19/06:30am 19.9 19.1 17.9 88 1.2 SW 19 20 10 11 1016.3 1016.3 0.0
19/06:00am 20.4 20.8 18.9 91 0.9 SW 15 17 8 9 1016.1 1016.1 0.0
19/05:30am 21.1 23.5 19.6 91 1.0 WSW 6 13 3 7 1015.8 1015.8 0.0
19/05:00am 20.7 22.9 19.2 91 0.9 SW 6 9 3 5 1015.7 1015.7 0.0
19/04:30am 20.6 21.0 18.9 90 1.1 SW 15 20 8 11 1015.8 1015.8 0.0
19/04:00am 21.5 21.3 19.8 90 1.1 SSW 20 24 11 13 1016.0 1016.0 0.0
19/03:30am 22.0 23.9 20.5 91 1.0 SSW 11 17 6 9 1015.8 1015.8 0.0
19/03:00am 21.8 24.0 20.4 92 0.9 SSW 9 11 5 6 1015.7 1015.7 0.0
19/02:30am 21.7 23.5 20.3 92 0.9 SSW 11 13 6 7 1015.7 1015.7 0.0
19/02:00am 21.5 23.3 20.3 93 0.8 SSW 11 13 6 7 1015.8 1015.8 0.0
19/01:30am 21.7 23.6 20.5 93 0.8 SW 11 13 6 7 1015.8 1015.8 0.0
19/01:00am 21.4 22.6 20.0 92 0.9 SSW 13 13 7 7 1015.9 1015.9 0.0
19/12:30am 22.2 24.4 20.5 90 1.1 SSW 9 11 5 6 1015.9 1015.9 0.0
19/12:00am 22.8 25.2 20.0 84 1.8 W 7 11 4 6 1016.1 1016.1 0.0
 
Date/Time
EST
Temp
°C
App
Temp
°C
Dew
Point
°C
Rel
Hum
%
Delta-T
°C
Wind Press
QNH
hPa
Press
MSL
hPa
Rain since
9am
mm
Dir  Spd
km/h
Gust
km/h
Spd
kts
Gust
kts
18/11:30pm 22.9 23.7 19.9 83 1.9 WSW 15 17 8 9 1016.2 1016.2 0.0
18/11:00pm 23.1 23.4 19.7 81 2.2 NNW 17 24 9 13 1016.4 1016.4 0.0
18/10:30pm 23.2 23.2 20.2 83 1.9 NNW 20 22 11 12 1016.3 1016.3 0.0
18/10:00pm 23.1 23.1 20.1 83 1.9 NNW 20 22 11 12 1016.4 1016.4 0.0
18/09:30pm 23.2 23.6 19.8 81 2.2 NNW 17 20 9 11 1016.6 1016.6 0.0
18/09:00pm 23.5 24.6 20.4 83 2.0 N 15 19 8 10 1016.5 1016.5 0.0
18/08:30pm 23.5 24.2 19.6 79 2.5 NNE 15 17 8 9 1016.3 1016.3 0.0
18/08:00pm 23.5 24.1 19.4 78 2.6 NNE 15 19 8 10 1015.9 1015.9 0.0
18/07:30pm 23.5 23.0 19.2 77 2.7 N 20 24 11 13 1015.4 1015.4 0.0
18/07:00pm 23.5 23.2 19.2 77 2.7 N 19 20 10 11 1015.0 1015.0 0.0
18/06:30pm 23.6 23.2 19.3 77 2.7 N 20 24 11 13 1014.8 1014.8 0.0
18/06:00pm 23.6 23.0 18.9 75 3.0 NNE 20 24 11 13 1014.6 1014.6 0.0
18/05:30pm 23.9 23.6 19.6 77 2.8 NNE 20 22 11 12 1014.7 1014.7 0.0
18/05:00pm 23.7 23.4 19.2 76 2.9 NNE 19 22 10 12 1014.8 1014.8 0.0
18/04:30pm 23.6 23.4 19.3 77 2.7 NE 19 20 10 11 1014.5 1014.5 0.0
18/04:00pm 23.8 24.1 19.7 78 2.6 NE 17 20 9 11 1014.3 1014.3 0.0
18/03:30pm 23.4 23.3 18.7 75 3.0 NE 17 20 9 11 1014.4 1014.4 0.0
18/03:00pm 23.7 23.7 19.0 75 3.0 NE 17 19 9 10 1014.4 1014.4 0.0
18/02:30pm 24.2 24.9 18.8 72 3.4 ENE 13 17 7 9 1014.6 1014.6 0.0
18/02:00pm 24.4 25.4 18.6 70 3.7 ESE 11 15 6 8 1014.7 1014.7 0.0
18/01:30pm 24.7 25.7 18.6 69 3.9 ESE 11 15 6 8 1015.1 1015.1 0.0
18/01:00pm 24.9 25.9 18.6 68 4.0 ESE 11 15 6 8 1015.4 1015.4 0.0
18/12:30pm 24.4 25.3 18.3 69 3.8 ESE 11 13 6 7 1015.8 1015.8 0.0
18/12:00pm 24.7 25.9 18.2 67 4.1 ESE 9 13 5 7 1016.1 1016.1 0.0
18/11:30am 24.9 26.9 19.1 70 3.7 ESE 7 9 4 5 1016.6 1016.6 0.0
18/11:00am 24.2 26.1 18.6 71 3.5 S 6 9 3 5 1017.1 1017.1 0.0
18/10:30am 24.0 26.4 18.0 69 3.8 NW 2 6 1 3 1017.3 1017.3 0.0
18/10:00am 22.5 24.2 18.5 78 2.5 WSW 7 11 4 6 1017.4 1017.4 0.0
18/09:30am 22.0 23.1 18.8 82 2.0 SW 11 13 6 7 1017.4 1017.4 0.0
18/09:00am 21.4 22.0 18.6 84 1.8 SW 13 15 7 8 1017.4 1017.4 0.0
18/08:30am 20.9 21.5 18.7 87 1.4 SW 13 15 7 8 1017.1 1017.1 0.0
18/08:00am 20.6 21.2 18.7 89 1.2 SW 13 15 7 8 1016.9 1016.9 0.0
18/07:30am 20.3 20.5 18.6 90 1.1 SW 15 15 8 8 1016.6 1016.6 0.0
18/07:00am 20.2 20.5 18.7 91 0.9 SW 15 17 8 9 1016.3 1016.3 0.0
18/06:30am 20.2 20.0 18.5 90 1.1 SW 17 19 9 10 1015.8 1015.8 0.0
18/06:00am 20.2 20.1 18.7 91 0.9 SW 17 19 9 10 1015.5 1015.5 0.0
18/05:30am 20.6 21.0 19.1 91 0.9 WSW 15 17 8 9 1014.8 1014.8 0.0
18/05:00am 20.3 20.3 19.0 92 0.8 WSW 17 19 9 10 1014.7 1014.7 0.0
18/04:30am 20.1 19.7 18.9 93 0.8 WSW 19 20 10 11 1014.6 1014.6 0.0
18/04:00am 20.1 20.1 18.9 93 0.8 WSW 17 19 9 10 1014.5 1014.5 0.0
18/03:30am 20.1 20.4 18.8 92 0.8 WSW 15 17 8 9 1014.5 1014.5 0.0
18/03:00am 20.5 21.0 19.2 92 0.8 WSW 15 17 8 9 1014.6 1014.6 0.0
18/02:30am 20.7 21.2 19.2 91 0.9 WSW 15 17 8 9 1014.6 1014.6 0.0
18/02:00am 21.2 22.5 19.3 89 1.2 SW 11 13 6 7 1014.4 1014.4 0.0
18/01:30am 21.8 23.5 19.4 86 1.5 WSW 9 11 5 6 1014.6 1014.6 0.0
18/01:00am 22.3 23.9 19.1 82 2.0 NW 9 13 5 7 1014.7 1014.7 0.0
18/12:30am 22.5 24.1 19.1 81 2.2 WNW 9 13 5 7 1015.0 1015.0 0.0
18/12:00am 22.7 23.8 18.9 79 2.4 NNW 11 15 6 8 1015.0 1015.0 0.0
 
Date/Time
EST
Temp
°C
App
Temp
°C
Dew
Point
°C
Rel
Hum
%
Delta-T
°C
Wind Press
QNH
hPa
Press
MSL
hPa
Rain since
9am
mm
Dir  Spd
km/h
Gust
km/h
Spd
kts
Gust
kts
17/11:30pm 22.6 23.9 19.4 82 2.0 NNW 11 13 6 7 1015.2 1015.2 0.0
17/11:00pm 22.7 24.0 19.3 81 2.2 NNW 11 15 6 8 1015.3 1015.3 0.0
17/10:30pm 23.1 24.0 19.3 79 2.4 N 13 15 7 8 1015.4 1015.4 0.0
17/10:00pm 23.2 24.5 19.2 78 2.5 N 11 13 6 7 1015.5 1015.5 0.0
17/09:30pm 23.2 24.3 18.9 77 2.7 N 11 15 6 8 1015.4 1015.4 0.0
17/09:00pm 23.2 23.8 18.7 76 2.8 N 13 15 7 8 1015.4 1015.4 0.0
17/08:30pm 23.3 24.0 18.8 76 2.8 N 13 17 7 9 1015.2 1015.2 0.0
17/08:00pm 23.4 22.7 18.3 73 3.2 N 19 22 10 12 1014.8 1014.8 0.0
17/07:30pm 23.4 22.7 18.3 73 3.2 N 19 22 10 12 1014.4 1014.4 0.0
17/07:00pm 23.5 22.7 18.4 73 3.2 N 20 24 11 13 1014.0 1014.0 0.0
17/06:30pm 23.5 22.6 18.2 72 3.3 NNE 20 26 11 14 1013.6 1013.6 0.0
17/06:00pm 23.7 23.0 18.6 73 3.2 NNE 20 22 11 12 1013.5 1013.5 0.0
17/05:30pm 23.8 22.6 17.5 68 3.9 NNE 20 24 11 13 1013.1 1013.1 0.0
17/05:00pm 24.1 23.0 17.8 68 3.9 NNE 20 26 11 14 1013.0 1013.0 0.0
17/04:30pm 23.9 22.7 17.6 68 3.9 NNE 20 26 11 14 1012.9 1012.9 0.0
17/04:00pm 24.2 22.7 17.7 67 4.1 NNE 22 28 12 15 1012.6 1012.6 0.0
17/03:30pm 24.2 23.4 17.9 68 3.9 NNE 19 22 10 12 1012.8 1012.8 0.0
17/03:00pm 24.0 23.6 18.0 69 3.8 NNE 17 20 9 11 1013.2 1013.2 0.0
17/02:30pm 24.6 24.0 17.6 65 4.4 NNE 17 20 9 11 1013.3 1013.3 0.0
17/02:00pm 24.5 24.3 17.5 65 4.4 NNE 15 20 8 11 1013.7 1013.7 0.0
17/01:30pm 23.9 23.5 17.2 66 4.1 NNE 15 19 8 10 1014.1 1014.1 0.0
17/01:00pm 23.8 23.9 18.4 72 3.4 NE 15 17 8 9 1014.4 1014.4 0.0
17/12:30pm 24.2 25.1 18.4 70 3.7 ENE 11 15 6 8 1014.7 1014.7 0.0
17/12:00pm 25.2 27.0 18.4 66 4.3 NNE 6 7 3 4 1015.2 1015.2 0.0
17/11:30am 25.7 28.3 19.3 67 4.1 NNE 4 6 2 3 1015.7 1015.7 0.0
17/11:00am 24.0 26.2 19.3 75 3.0 SSE 6 7 3 4 1016.2 1016.2 0.0
17/10:30am 22.8 24.5 18.6 77 2.6 S 7 9 4 5 1016.6 1016.6 0.0
17/10:00am 22.7 24.6 18.9 79 2.4 S 7 9 4 5 1016.8 1016.8 0.0
17/09:30am 21.7 23.3 18.3 81 2.1 SW 7 9 4 5 1016.8 1016.8 0.0
17/09:00am 21.5 22.8 18.5 83 1.9 SW 9 11 5 6 1016.8 1016.8 0.0
17/08:30am 21.0 21.5 18.4 85 1.6 SW 13 13 7 7 1016.5 1016.5 0.0
17/08:00am 20.5 21.4 18.4 88 1.3 WSW 11 13 6 7 1016.3 1016.3 0.0
17/07:30am 20.2 20.7 18.3 89 1.2 WSW 13 13 7 7 1015.9 1015.9 0.0
17/07:00am 20.0 20.5 18.3 90 1.1 WSW 13 15 7 8 1015.6 1015.6 0.0
17/06:30am 19.9 20.0 18.4 91 0.9 WSW 15 17 8 9 1015.3 1015.3 0.0
17/06:00am 20.3 20.1 18.4 89 1.2 SW 17 19 9 10 1015.0 1015.0 0.0
17/05:30am 20.6 20.9 18.7 89 1.2 SW 15 17 8 9 1014.6 1014.6 0.0
17/05:00am 20.4 20.4 18.2 87 1.4 WSW 15 17 8 9 1014.3 1014.3 0.0
17/04:30am 20.6 20.7 18.4 87 1.4 WSW 15 17 8 9 1014.1 1014.1 0.0
17/04:00am 20.6 20.6 18.2 86 1.5 WSW 15 17 8 9 1014.2 1014.2 0.0
17/03:30am 20.6 20.6 18.2 86 1.5 WSW 15 17 8 9 1014.4 1014.4 0.0
17/03:00am 20.6 20.8 18.5 88 1.3 WSW 15 15 8 8 1014.5 1014.5 0.0
17/02:30am 20.7 21.4 18.8 89 1.2 WSW 13 15 7 8 1014.7 1014.7 0.0
17/02:00am 20.9 21.2 18.7 87 1.4 WSW 15 17 8 9 1015.0 1015.0 0.0
17/01:30am 21.3 21.9 18.7 85 1.6 WSW 13 15 7 8 1015.1 1015.1 0.0
17/01:00am 21.5 22.0 18.3 82 2.0 SW 13 17 7 9 1015.2 1015.2 0.0
17/12:30am 23.4 24.4 17.8 71 3.5 E 9 13 5 7 1015.3 1015.3 0.0
17/12:00am 23.5 23.5 17.3 68 3.8 ENE 13 15 7 8 1015.4 1015.4 0.0
 
Date/Time
EST
Temp
°C
App
Temp
°C
Dew
Point
°C
Rel
Hum
%
Delta-T
°C
Wind Press
QNH
hPa
Press
MSL
hPa
Rain since
9am
mm
Dir  Spd
km/h
Gust
km/h
Spd
kts
Gust
kts
16/11:30pm 23.6 23.9 18.0 71 3.5 NE 13 17 7 9 1015.5 1015.5 0.0

Other Formats:

Comma delimited format used in spreadsheet applications
http://www.bom.gov.au/fwo/IDQ60801/IDQ60801.94295.axf

JavaScript Object Notation format (JSON) in row-major order
http://www.bom.gov.au/fwo/IDQ60801/IDQ60801.94295.json